Time;durP1;ratioP1;P1;durP2;ratioP2;P2;SDS_P1;SDS_P2;PMS_P1;PMS_P2;Temp;Humidity;BMP_temperature;BMP_pressure;BME280_temperature;BME280_humidity;BME280_pressure;Samples;Min_cycle;Max_cycle;Signal;HPM_P1;HPM_P2
2022/03/20 00:01:28;;;;;;;29.08;18.98;;;;;;;3.36;47.86;101351.69;10300335;28;20168;-82
2022/03/20 00:06:30;;;;;;;28.48;18.35;;;;;;;3.44;47.97;101336.97;10318225;28;20419;-82
2022/03/20 00:11:32;;;;;;;27.83;18.88;;;;;;;3.66;47.99;101333.34;10317779;28;20133;-82
2022/03/20 00:16:33;;;;;;;27.40;18.95;;;;;;;3.74;47.76;101337.56;10317513;28;20082;-82
2022/03/20 00:21:35;;;;;;;25.38;17.70;;;;;;;3.88;47.52;101324.53;10317210;28;20042;-82
2022/03/20 00:26:39;;;;;;;25.85;18.63;;;;;;;4.02;47.18;101322.66;10319098;28;20145;-82
2022/03/20 00:31:41;;;;;;;28.20;18.50;;;;;;;4.11;46.66;101301.81;10317017;28;20049;-82
2022/03/20 00:36:42;;;;;;;26.60;18.63;;;;;;;3.96;46.47;101303.75;10318240;28;20066;-82
2022/03/20 00:41:44;;;;;;;28.77;18.77;;;;;;;3.89;46.18;101300.34;10316901;28;20142;-82
2022/03/20 00:46:48;;;;;;;26.90;17.73;;;;;;;3.89;46.23;101305.53;10317127;28;20137;-82
2022/03/20 00:51:50;;;;;;;27.58;18.38;;;;;;;3.82;45.95;101298.69;10316730;28;20079;-83
2022/03/20 00:56:52;;;;;;;25.35;17.92;;;;;;;3.60;45.56;101292.84;10313273;28;20607;-83
2022/03/20 01:01:55;;;;;;;25.15;17.65;;;;;;;3.57;45.71;101281.69;10315535;28;20129;-83
2022/03/20 01:07:00;;;;;;;27.73;17.83;;;;;;;3.40;45.52;101283.56;10316964;28;20055;-84
2022/03/20 01:12:03;;;;;;;24.25;16.98;;;;;;;3.32;45.09;101275.03;10299513;28;20084;-83
2022/03/20 01:17:05;;;;;;;28.30;17.45;;;;;;;3.26;45.05;101269.91;10315913;28;20152;-83
2022/03/20 01:22:07;;;;;;;25.75;16.58;;;;;;;3.23;44.97;101264.78;10315118;28;20129;-83
2022/03/20 01:27:09;;;;;;;24.13;16.23;;;;;;;3.05;44.99;101252.84;10315592;28;20133;-83
2022/03/20 01:32:10;;;;;;;27.15;17.50;;;;;;;2.95;45.36;101248.63;10316519;28;20125;-83
2022/03/20 01:37:12;;;;;;;25.27;17.23;;;;;;;3.01;45.70;101246.00;10315727;28;20129;-83
2022/03/20 01:42:14;;;;;;;28.77;16.50;;;;;;;3.00;45.56;101237.41;10298009;28;20046;-83
2022/03/20 01:47:16;;;;;;;26.77;16.80;;;;;;;2.92;45.18;101226.28;10298007;28;20160;-83
2022/03/20 01:52:24;;;;;;;23.77;16.80;;;;;;;2.82;45.43;101224.63;10313806;28;20077;-83
2022/03/20 01:57:26;;;;;;;27.15;17.50;;;;;;;2.90;45.96;101220.28;10296833;28;20109;-83
2022/03/20 02:02:28;;;;;;;27.65;16.83;;;;;;;2.81;45.53;101214.28;10296697;28;20054;-83
2022/03/20 02:07:30;;;;;;;29.98;17.60;;;;;;;2.81;45.57;101210.00;10295949;28;20058;-83
2022/03/20 02:12:32;;;;;;;26.67;17.48;;;;;;;2.77;45.82;101203.13;10314432;28;20058;-83
2022/03/20 02:17:35;;;;;;;25.40;17.80;;;;;;;2.61;46.42;101201.53;10296395;28;20129;-84
2022/03/20 02:22:42;;;;;;;28.15;17.80;;;;;;;2.60;46.35;101199.81;10297595;28;20129;-83
2022/03/20 02:27:44;;;;;;;30.67;17.52;;;;;;;2.57;46.63;101181.78;10312836;28;20128;-83
2022/03/20 02:32:51;;;;;;;27.52;17.55;;;;;;;2.40;46.69;101175.03;10310416;28;20551;-83
2022/03/20 02:37:54;;;;;;;29.75;18.60;;;;;;;2.31;47.40;101162.16;10312901;28;20069;-83
2022/03/20 02:42:56;;;;;;;30.98;18.15;;;;;;;2.22;47.49;101160.50;10312890;28;20130;-83
2022/03/20 02:48:00;;;;;;;25.52;17.05;;;;;;;2.32;47.78;101167.31;10311867;28;20152;-83
2022/03/20 02:53:14;;;;;;;25.73;16.95;;;;;;;2.29;46.97;101162.19;10312377;28;20050;-83
2022/03/20 02:58:34;;;;;;;25.88;17.85;;;;;;;2.16;47.54;101170.84;10312128;28;20057;-83
2022/03/20 03:04:01;;;;;;;26.50;17.25;;;;;;;2.11;47.97;101177.78;10258922;28;20153;-83
2022/03/20 03:19:49;;;;;;;25.52;17.13;;;;;;;1.96;46.66;101158.06;10277916;28;20130;-83
2022/03/20 03:24:51;;;;;;;27.02;17.23;;;;;;;1.83;46.79;101156.41;10277791;28;20145;-83
2022/03/20 03:29:53;;;;;;;28.10;18.27;;;;;;;1.92;46.94;101151.22;10257888;28;20105;-83
2022/03/20 03:40:15;;;;;;;28.20;19.07;;;;;;;1.82;47.35;101139.25;10276411;28;20482;-84
2022/03/20 03:45:17;;;;;;;27.40;17.30;;;;;;;1.79;47.41;101135.78;10258242;28;20074;-84
2022/03/20 03:50:20;;;;;;;30.23;17.80;;;;;;;1.71;47.78;101134.97;10276426;28;20090;-84
2022/03/20 03:55:21;;;;;;;27.52;17.60;;;;;;;1.80;47.58;101137.53;10277945;28;20142;-84
2022/03/20 04:00:27;;;;;;;28.85;18.20;;;;;;;1.78;47.21;101118.63;10264394;28;20466;-84
2022/03/20 04:05:29;;;;;;;26.20;17.52;;;;;;;1.69;47.18;101119.50;10291953;28;20057;-84
2022/03/20 04:10:31;;;;;;;27.48;18.00;;;;;;;1.66;47.30;101116.09;10273249;28;20149;-84
2022/03/20 04:15:33;;;;;;;28.83;18.40;;;;;;;1.69;47.54;101100.59;10290978;28;20134;-84
2022/03/20 04:20:37;;;;;;;29.50;17.77;;;;;;;1.58;47.88;101082.63;10296648;28;20489;-83
2022/03/20 04:25:39;;;;;;;27.73;17.95;;;;;;;1.41;48.05;101071.53;10295958;28;20062;-83
2022/03/20 04:30:41;;;;;;;28.55;17.67;;;;;;;1.46;48.22;101076.69;10297017;28;20053;-83
2022/03/20 04:35:44;;;;;;;26.77;17.75;;;;;;;1.43;48.18;101082.69;10296566;28;20054;-83
2022/03/20 04:40:45;;;;;;;27.20;18.77;;;;;;;1.41;48.60;101070.66;10293709;28;20046;-84
2022/03/20 04:45:47;;;;;;;28.17;17.67;;;;;;;1.34;48.35;101055.22;10298616;28;20082;-84
2022/03/20 05:01:30;;;;;;;28.02;19.27;;;;;;;1.36;49.04;101075.84;10295593;28;20137;-83
2022/03/20 05:06:32;;;;;;;31.00;19.95;;;;;;;1.44;49.45;101083.56;10297185;28;20058;-83
2022/03/20 05:17:09;;;;;;;30.52;19.85;;;;;;;1.57;48.94;101091.22;10241938;28;20061;-84
2022/03/20 05:22:11;;;;;;;30.27;20.25;;;;;;;1.50;49.17;101111.88;10295102;28;20083;-84
2022/03/20 05:27:12;;;;;;;31.90;20.20;;;;;;;1.49;49.24;101107.56;10293862;28;20082;-84
2022/03/20 05:32:15;;;;;;;30.92;20.02;;;;;;;1.51;49.40;101105.84;10292656;28;20137;-84
2022/03/20 05:37:17;;;;;;;29.73;19.13;;;;;;;1.36;49.49;101094.75;10294364;28;20146;-83
2022/03/20 05:42:19;;;;;;;32.15;20.40;;;;;;;1.35;49.60;101090.47;10272256;28;20071;-84
2022/03/20 05:47:21;;;;;;;33.15;20.58;;;;;;;1.27;49.25;101081.91;10289522;28;20356;-84
2022/03/20 05:52:22;;;;;;;30.77;20.90;;;;;;;1.29;49.74;101084.47;10294677;28;20058;-83
2022/03/20 06:02:48;;;;;;;30.85;21.15;;;;;;;1.66;48.92;101074.84;10295579;28;20147;-83
2022/03/20 06:07:51;;;;;;;26.98;18.83;;;;;;;1.78;48.81;101079.94;10296318;28;20058;-84
2022/03/20 06:12:52;;;;;;;31.67;20.45;;;;;;;1.95;48.76;101078.13;10277041;28;20137;-83
2022/03/20 06:17:54;;;;;;;30.02;20.38;;;;;;;2.12;48.79;101071.97;10293580;28;20055;-84
2022/03/20 06:22:56;;;;;;;31.70;21.10;;;;;;;2.33;48.29;101060.63;10293961;28;20567;-84
2022/03/20 06:28:00;;;;;;;30.60;20.80;;;;;;;2.54;47.91;101080.25;10274498;28;20191;-83
2022/03/20 06:33:02;;;;;;;29.95;21.17;;;;;;;2.72;47.81;101073.19;10295502;28;20141;-84
2022/03/20 06:38:04;;;;;;;30.17;20.65;;;;;;;2.89;47.81;101083.31;10294147;28;20058;-84
2022/03/20 06:43:06;;;;;;;33.03;22.17;;;;;;;3.12;47.24;101091.69;10274704;28;20129;-83
2022/03/20 06:48:08;;;;;;;34.15;22.70;;;;;;;3.38;47.23;101100.00;10292205;28;20132;-83
2022/03/20 06:53:11;;;;;;;31.58;22.10;;;;;;;3.63;47.03;101087.63;10294166;28;20130;-84
2022/03/20 06:58:23;;;;;;;31.08;22.58;;;;;;;3.74;46.69;101085.75;10293557;28;20089;-84
2022/03/20 07:03:25;;;;;;;38.28;24.63;;;;;;;3.82;46.41;101081.34;10292479;28;20096;-83
2022/03/20 07:08:28;;;;;;;32.28;22.67;;;;;;;3.91;46.28;101080.34;10275721;28;20139;-83
2022/03/20 07:18:50;;;;;;;32.80;22.60;;;;;;;4.17;45.65;101083.44;10292404;28;20093;-83
2022/03/20 07:23:54;;;;;;;31.02;21.17;;;;;;;4.19;45.42;101079.94;10295470;28;20054;-84
2022/03/20 07:34:16;;;;;;;31.95;22.60;;;;;;;4.53;45.11;101081.13;10291163;28;20132;-84
2022/03/20 07:39:18;;;;;;;34.70;23.73;;;;;;;4.94;45.48;101058.78;10294095;28;20151;-84
2022/03/20 07:44:22;;;;;;;34.80;23.60;;;;;;;4.95;44.97;101045.78;10292165;28;20138;-83
2022/03/20 07:49:26;;;;;;;30.77;22.15;;;;;;;4.92;44.92;101043.28;10290486;28;20070;-83
2022/03/20 07:54:28;;;;;;;33.20;23.02;;;;;;;5.24;44.26;101073.75;10294984;28;20150;-83
2022/03/20 07:59:30;;;;;;;37.30;25.05;;;;;;;5.82;44.13;101081.16;10293547;28;20117;-83
2022/03/20 08:04:32;;;;;;;34.33;23.48;;;;;;;6.42;42.85;101066.78;10292459;28;20064;-83
2022/03/20 08:09:34;;;;;;;33.88;22.73;;;;;;;6.43;42.53;101067.63;10276951;28;20226;-83
2022/03/20 08:14:36;;;;;;;33.53;23.40;;;;;;;6.83;41.75;101068.31;10293070;28;20134;-83
2022/03/20 08:19:40;;;;;;;34.22;24.48;;;;;;;7.10;41.21;101072.78;10296477;28;20051;-83
2022/03/20 08:24:44;;;;;;;34.17;24.58;;;;;;;6.94;40.79;101066.25;10296382;28;20323;-83
2022/03/20 08:29:46;;;;;;;36.15;25.20;;;;;;;7.13;41.15;101057.94;10277967;28;20073;-83
2022/03/20 08:34:48;;;;;;;35.28;24.92;;;;;;;7.15;41.06;101047.47;10298118;28;20133;-83
2022/03/20 08:39:50;;;;;;;36.05;24.80;;;;;;;7.06;41.26;101066.78;10297164;28;20174;-83
2022/03/20 08:44:52;;;;;;;36.67;26.20;;;;;;;7.16;41.21;101067.41;10295950;28;20064;-83
2022/03/20 08:49:54;;;;;;;32.97;24.92;;;;;;;7.82;41.53;101075.00;10296913;28;20161;-82
2022/03/20 08:54:56;;;;;;;37.30;25.08;;;;;;;8.73;40.04;101067.69;10294980;28;20137;-82
2022/03/20 08:59:58;;;;;;;33.85;25.02;;;;;;;8.40;39.86;101064.50;10299750;28;20154;-83
2022/03/20 09:05:00;;;;;;;37.00;26.40;;;;;;;7.96;40.10;101080.63;10314423;28;20054;-82
2022/03/20 09:10:03;;;;;;;34.47;25.10;;;;;;;7.75;40.19;101079.53;10297580;28;20043;-82
2022/03/20 09:15:12;;;;;;;35.38;25.42;;;;;;;8.01;40.19;101078.75;10299410;28;20134;-82
2022/03/20 09:20:14;;;;;;;34.15;24.27;;;;;;;8.40;39.11;101074.06;10304974;28;20057;-83
2022/03/20 09:25:16;;;;;;;33.20;24.55;;;;;;;8.65;38.46;101067.97;10314055;28;20137;-82
2022/03/20 09:30:19;;;;;;;34.15;25.88;;;;;;;8.77;38.33;101074.53;10294903;28;20138;-82
2022/03/20 09:35:21;;;;;;;38.50;25.35;;;;;;;9.40;37.78;101071.41;10297637;28;20113;-82
2022/03/20 09:40:24;;;;;;;36.35;26.02;;;;;;;9.90;37.32;101067.75;10312050;28;20054;-82
2022/03/20 09:45:26;;;;;;;32.58;24.65;;;;;;;10.19;36.79;101062.22;10311782;28;20428;-82
2022/03/20 09:50:34;;;;;;;34.25;24.48;;;;;;;10.69;36.40;101062.75;10312323;28;20164;-82
2022/03/20 09:55:36;;;;;;;31.88;23.75;;;;;;;11.16;35.46;101058.09;10295867;28;20081;-82
2022/03/20 10:00:37;;;;;;;33.75;24.13;;;;;;;11.16;35.40;101051.09;10304067;28;20166;-83
2022/03/20 10:05:39;;;;;;;33.08;22.90;;;;;;;11.03;34.91;101062.16;10270909;28;20504;-83
2022/03/20 10:10:42;;;;;;;34.58;23.25;;;;;;;10.96;34.84;101043.25;10288921;28;20469;-83
2022/03/20 10:15:44;;;;;;;33.70;23.67;;;;;;;11.26;34.90;101036.69;10274687;28;20058;-82
2022/03/20 10:20:46;;;;;;;31.40;22.98;;;;;;;11.59;34.99;101038.69;10291945;28;20054;-83
2022/03/20 10:25:52;;;;;;;31.27;23.08;;;;;;;11.95;34.49;101036.94;10268514;28;20050;-83
2022/03/20 10:30:58;;;;;;;30.52;22.38;;;;;;;12.27;34.65;101028.38;10292035;28;20133;-82
2022/03/20 10:36:15;;;;;;;29.30;22.15;;;;;;;12.17;34.25;101028.91;10287195;28;20058;-82
2022/03/20 10:41:17;;;;;;;32.95;24.08;;;;;;;12.22;36.08;101043.47;10256373;28;20086;-83
2022/03/20 10:46:29;;;;;;;31.45;23.08;;;;;;;12.76;34.21;101032.88;10281438;28;20419;-83
2022/03/20 10:51:37;;;;;;;30.27;22.02;;;;;;;12.76;34.90;101022.38;10281110;28;20060;-84
2022/03/20 10:56:56;;;;;;;30.13;22.83;;;;;;;13.09;33.85;101030.28;10287496;28;20082;-84
2022/03/20 11:01:58;;;;;;;28.80;21.17;;;;;;;13.17;34.26;101025.47;10288561;28;20137;-84
2022/03/20 11:07:06;;;;;;;32.22;21.52;;;;;;;13.00;34.86;101016.78;10291733;28;20129;-84
2022/03/20 11:12:09;;;;;;;31.77;21.88;;;;;;;12.98;34.75;101029.16;10311679;28;20120;-84
2022/03/20 11:17:17;;;;;;;29.40;21.50;;;;;;;13.05;34.91;101025.28;10311123;28;20085;-84
2022/03/20 11:22:20;;;;;;;26.52;20.63;;;;;;;13.18;34.83;101026.31;10293877;28;20551;-84
2022/03/20 11:27:28;;;;;;;25.85;20.52;;;;;;;13.20;34.49;101030.56;10292702;28;20054;-85
2022/03/20 11:32:30;;;;;;;26.38;20.92;;;;;;;13.60;34.33;101021.41;10310584;28;20116;-84
2022/03/20 11:37:46;;;;;;;27.25;21.30;;;;;;;14.07;32.58;101022.22;10310099;28;20479;-84
2022/03/20 11:42:50;;;;;;;26.77;20.63;;;;;;;14.19;33.53;101039.09;10308767;28;20061;-84
2022/03/20 11:48:13;;;;;;;27.27;21.05;;;;;;;13.93;32.91;101040.56;10309685;28;20141;-85
2022/03/20 11:53:28;;;;;;;29.60;20.67;;;;;;;13.85;33.64;101040.16;10302933;28;20046;-84
2022/03/20 11:58:30;;;;;;;27.70;21.17;;;;;;;13.62;34.46;101030.03;10311214;28;20050;-85
2022/03/20 12:03:46;;;;;;;27.23;21.23;;;;;;;13.67;34.35;101014.88;10289065;28;20489;-84
2022/03/20 12:08:55;;;;;;;33.10;22.80;;;;;;;13.69;34.81;101013.88;10304272;28;20178;-84
2022/03/20 12:14:14;;;;;;;31.70;22.77;;;;;;;13.65;34.74;101009.72;10306706;28;20051;-85
2022/03/20 12:19:18;;;;;;;30.63;22.33;;;;;;;13.79;34.95;101006.31;10289142;28;20172;-84
2022/03/20 12:24:35;;;;;;;28.88;22.15;;;;;;;14.26;34.81;101004.47;10305473;28;20419;-85
2022/03/20 12:29:38;;;;;;;28.00;21.58;;;;;;;14.57;34.81;100985.94;10305749;28;20081;-84
2022/03/20 12:35:04;;;;;;;30.13;21.40;;;;;;;14.22;35.07;100983.66;10306484;28;20089;-84
2022/03/20 12:40:06;;;;;;;28.10;20.20;;;;;;;14.05;35.86;100974.13;10305928;28;20081;-85
2022/03/20 12:45:14;;;;;;;26.00;19.90;;;;;;;13.81;36.08;100978.16;10310840;28;20695;-84
2022/03/20 12:50:17;;;;;;;28.73;20.33;;;;;;;13.49;36.56;100984.34;10302452;28;20125;-85
2022/03/20 12:55:26;;;;;;;26.80;19.63;;;;;;;13.43;37.09;100987.31;10308382;28;20101;-84
2022/03/20 13:00:35;;;;;;;25.52;19.25;;;;;;;13.64;37.05;100986.13;10310569;28;20588;-84
2022/03/20 13:05:58;;;;;;;24.17;17.85;;;;;;;14.13;36.00;100997.34;10313690;28;20065;-84
2022/03/20 13:11:48;;;;;;;23.02;17.20;;;;;;;14.75;35.37;100986.66;10314509;28;20046;-84
2022/03/20 13:16:32;;;;;;;23.20;16.10;;;;;;;14.95;35.15;100985.44;10315270;28;20046;-84
2022/03/20 13:21:35;;;;;;;22.80;14.93;;;;;;;14.58;35.31;100984.16;10297714;28;20077;-84
2022/03/20 13:26:36;;;;;;;19.35;14.98;;;;;;;14.65;34.95;100993.41;10310495;28;20089;-84
2022/03/20 13:31:38;;;;;;;23.48;14.75;;;;;;;14.75;35.24;100993.69;10312276;28;20475;-84
2022/03/20 13:36:46;;;;;;;20.55;14.00;;;;;;;15.25;34.21;100987.00;10315699;28;20133;-84
2022/03/20 13:41:48;;;;;;;18.85;13.18;;;;;;;15.65;34.20;100988.03;10312811;28;20497;-83
2022/03/20 13:46:50;;;;;;;20.83;14.70;;;;;;;15.69;33.53;101000.06;10292592;28;20726;-82
2022/03/20 13:51:52;;;;;;;18.00;12.70;;;;;;;15.49;34.65;100999.63;10306434;28;20141;-82
2022/03/20 13:57:14;;;;;;;21.63;13.45;;;;;;;15.05;34.98;101000.59;10293469;28;20176;-82
2022/03/20 14:02:16;;;;;;;18.90;13.75;;;;;;;15.13;34.58;100994.81;10309975;28;20062;-82
2022/03/20 14:07:23;;;;;;;19.80;14.15;;;;;;;15.21;34.63;100997.84;10290816;28;20510;-82
2022/03/20 14:12:32;;;;;;;20.35;13.63;;;;;;;15.40;34.77;101003.66;10293784;28;20096;-83
2022/03/20 14:17:50;;;;;;;23.65;13.38;;;;;;;15.48;34.62;101014.56;10315089;28;20082;-82
2022/03/20 14:22:57;;;;;;;33.85;13.38;;;;;;;15.23;35.00;101002.06;10312216;28;20136;-82
2022/03/20 14:28:02;;;;;;;22.30;14.15;;;;;;;15.07;35.32;101006.59;10307230;28;20526;-82
2022/03/20 14:44:29;;;;;;;20.38;13.00;;;;;;;15.11;35.22;101005.47;10309178;28;20522;-83
2022/03/20 14:49:34;;;;;;;17.40;13.20;;;;;;;15.08;35.63;101005.66;10297162;28;20085;-83
2022/03/20 14:54:37;;;;;;;18.73;13.70;;;;;;;15.01;35.60;101012.25;10310274;28;20050;-82
2022/03/20 14:59:39;;;;;;;19.73;13.30;;;;;;;15.04;35.70;101012.03;10310335;28;20141;-82
2022/03/20 15:04:41;;;;;;;18.80;12.10;;;;;;;14.96;35.67;101016.94;10310181;28;20054;-82
2022/03/20 15:15:04;;;;;;;;;;;;;;;14.84;36.08;101008.94;10311831;28;20152;-82
2022/03/20 15:20:06;;;;;;;22.63;13.38;;;;;;;14.97;35.92;101005.47;10312867;28;19996;-82
2022/03/20 15:25:09;;;;;;;17.70;12.38;;;;;;;14.89;35.95;101001.59;10309946;28;20093;-82
2022/03/20 15:30:11;;;;;;;19.50;14.27;;;;;;;14.79;35.95;100997.84;10311634;28;20057;-82
2022/03/20 15:35:14;;;;;;;23.45;14.82;;;;;;;14.73;35.87;101006.97;10311307;28;20046;-82
2022/03/20 15:40:16;;;;;;;19.33;13.88;;;;;;;14.38;36.46;101006.38;10294236;28;20051;-82
2022/03/20 15:45:18;;;;;;;19.80;13.25;;;;;;;14.21;36.55;101010.91;10293769;28;20109;-82
2022/03/20 15:50:21;;;;;;;19.45;14.40;;;;;;;14.05;36.73;101003.06;10311985;28;20046;-82
2022/03/20 15:55:22;;;;;;;20.38;15.02;;;;;;;14.06;36.74;101014.44;10310187;28;20173;-82
2022/03/20 16:00:25;;;;;;;20.20;13.98;;;;;;;14.04;36.95;101013.66;10311421;28;20060;-82
2022/03/20 16:05:27;;;;;;;21.00;13.38;;;;;;;14.08;36.79;101012.56;10307203;28;20129;-82
2022/03/20 16:10:30;;;;;;;23.35;14.23;;;;;;;13.92;37.11;101017.00;10286179;28;20129;-82
2022/03/20 16:15:34;;;;;;;19.80;13.55;;;;;;;13.76;37.70;101015.22;10298346;28;20149;-82
2022/03/20 16:20:37;;;;;;;19.23;13.63;;;;;;;13.62;37.91;101024.78;10302571;28;20061;-82
2022/03/20 16:31:04;;;;;;;19.80;13.70;;;;;;;13.30;38.41;101039.66;10318476;28;20152;-82
2022/03/20 16:36:07;;;;;;;22.00;13.50;;;;;;;13.24;38.63;101044.38;10300624;28;20085;-82
2022/03/20 16:41:10;;;;;;;21.05;13.57;;;;;;;13.12;38.77;101047.66;10299856;28;20635;-82
2022/03/20 16:46:13;;;;;;;20.10;13.57;;;;;;;13.05;38.90;101043.66;10300471;28;20089;-82
2022/03/20 16:51:15;;;;;;;20.48;13.20;;;;;;;12.89;39.38;101049.69;10316973;28;20050;-82
2022/03/20 16:56:17;;;;;;;24.45;13.52;;;;;;;12.79;39.32;101051.09;10316298;28;20567;-83
2022/03/20 17:01:19;;;;;;;20.30;13.52;;;;;;;12.65;39.63;101052.72;10298009;28;20226;-82
2022/03/20 17:06:21;;;;;;;17.95;13.05;;;;;;;12.47;39.97;101062.38;10311313;28;20160;-81
2022/03/20 17:11:24;;;;;;;21.38;12.88;;;;;;;12.39;40.13;101066.31;10313197;28;20133;-81
2022/03/20 17:16:25;;;;;;;20.63;12.35;;;;;;;12.26;40.42;101068.63;10313040;28;20479;-82
2022/03/20 17:21:28;;;;;;;21.08;12.32;;;;;;;12.12;40.58;101071.06;10310167;28;20065;-82
2022/03/20 17:26:30;;;;;;;20.92;13.38;;;;;;;11.98;40.96;101071.75;10317391;28;20054;-81
2022/03/20 17:31:32;;;;;;;17.65;12.18;;;;;;;11.84;41.13;101076.78;10313452;28;20132;-82
2022/03/20 17:36:34;;;;;;;19.65;12.25;;;;;;;11.70;41.50;101076.56;10298085;28;20062;-81
2022/03/20 17:41:39;;;;;;;19.10;12.30;;;;;;;11.54;41.85;101077.34;10310304;28;20538;-82
2022/03/20 17:46:42;;;;;;;21.80;13.07;;;;;;;11.41;42.38;101077.06;10312917;28;20085;-82
2022/03/20 17:51:44;;;;;;;24.00;12.90;;;;;;;11.29;42.49;101077.59;10311174;28;20046;-82
2022/03/20 17:56:46;;;;;;;19.50;12.35;;;;;;;11.17;42.82;101083.38;10312312;28;20058;-82
2022/03/20 18:01:47;;;;;;;18.23;11.43;;;;;;;10.96;43.06;101084.28;10313371;28;20060;-81
2022/03/20 18:12:17;;;;;;;21.67;12.25;;;;;;;10.76;43.54;101090.38;10298328;28;20129;-82
2022/03/20 18:17:19;;;;;;;26.63;15.63;;;;;;;10.64;43.92;101101.34;10296010;28;20089;-82
2022/03/20 18:22:21;;;;;;;20.27;14.43;;;;;;;10.43;44.16;101102.22;10313027;28;20050;-82
2022/03/20 18:27:24;;;;;;;23.88;14.02;;;;;;;10.08;45.12;101101.00;10312764;28;20602;-82
2022/03/20 18:32:26;;;;;;;22.58;12.02;;;;;;;9.99;45.00;101108.34;10313264;28;20082;-82
2022/03/20 18:37:28;;;;;;;18.30;12.18;;;;;;;9.90;45.40;101098.25;10313896;28;20054;-82
2022/03/20 18:42:29;;;;;;;18.90;13.88;;;;;;;9.80;45.77;101115.19;10292083;28;20059;-83
2022/03/20 18:47:31;;;;;;;27.75;16.33;;;;;;;9.68;46.18;101115.66;10311318;28;20082;-82
2022/03/20 18:52:34;;;;;;;25.45;14.63;;;;;;;9.60;46.12;101121.13;10310920;28;20145;-82
2022/03/20 18:57:38;;;;;;;24.48;15.27;;;;;;;9.49;46.61;101129.34;10310831;28;20077;-82
2022/03/20 19:02:40;;;;;;;22.58;14.45;;;;;;;9.37;46.88;101124.56;10315045;28;20161;-82
2022/03/20 19:07:43;;;;;;;26.35;16.45;;;;;;;9.24;47.25;101133.72;10316227;28;20050;-82
2022/03/20 19:12:48;;;;;;;25.48;16.33;;;;;;;9.12;47.69;101138.53;10309283;28;20054;-83
2022/03/20 19:17:51;;;;;;;38.67;21.75;;;;;;;8.98;47.86;101146.84;10308057;28;20082;-82
2022/03/20 19:22:53;;;;;;;32.83;21.48;;;;;;;9.02;48.28;101143.22;10306566;28;20555;-82
2022/03/20 19:27:54;;;;;;;25.23;15.90;;;;;;;9.11;48.42;101153.34;10309698;28;20145;-82
2022/03/20 19:32:56;;;;;;;26.65;16.38;;;;;;;9.08;48.63;101148.22;10311069;28;20572;-83
2022/03/20 19:43:22;;;;;;;25.10;17.27;;;;;;;8.69;49.22;101149.56;10314124;28;20460;-82
2022/03/20 19:48:25;;;;;;;29.08;18.67;;;;;;;8.46;49.59;101139.88;10311334;28;20058;-83
2022/03/20 19:53:27;;;;;;;25.55;15.25;;;;;;;8.32;50.17;101146.44;10323816;28;20534;-82
2022/03/20 19:58:29;;;;;;;21.48;15.77;;;;;;;8.24;49.98;101151.88;10324306;28;20159;-82
2022/03/20 20:03:31;;;;;;;20.73;14.45;;;;;;;7.94;50.78;101161.44;10316305;28;20137;-83
2022/03/20 20:08:32;;;;;;;22.38;14.68;;;;;;;7.90;50.88;101159.81;10325011;28;20058;-82
2022/03/20 20:18:54;;;;;;;22.20;15.05;;;;;;;7.67;51.44;101170.03;10320725;28;20149;-82
2022/03/20 20:23:56;;;;;;;27.10;17.15;;;;;;;7.48;51.73;101175.81;10320664;28;20048;-82
2022/03/20 20:28:59;;;;;;;29.48;16.52;;;;;;;7.22;52.22;101178.25;10299661;28;20354;-82
2022/03/20 20:34:00;;;;;;;25.38;16.23;;;;;;;7.17;52.52;101178.38;10327857;28;20611;-81
2022/03/20 20:39:04;;;;;;;31.10;19.35;;;;;;;7.11;52.88;101181.13;10325022;28;20089;-82
2022/03/20 20:44:07;;;;;;;29.75;19.33;;;;;;;7.10;52.97;101172.47;10317568;28;20424;-83
2022/03/20 20:49:16;;;;;;;33.13;21.98;;;;;;;7.09;53.01;101182.91;10316926;28;20514;-82
2022/03/20 20:54:19;;;;;;;29.90;20.13;;;;;;;7.09;53.05;101172.50;10316943;28;20125;-83
2022/03/20 20:59:21;;;;;;;31.45;19.77;;;;;;;7.00;53.43;101184.00;10316028;28;20062;-82
2022/03/20 21:04:23;;;;;;;24.52;15.68;;;;;;;7.00;53.45;101181.41;10317032;28;20483;-82
2022/03/20 21:14:58;;;;;;;24.92;17.73;;;;;;;6.89;53.78;101179.97;10316579;28;20054;-82
2022/03/20 21:20:03;;;;;;;30.73;20.23;;;;;;;6.80;53.89;101198.38;10316085;28;20086;-83
2022/03/20 21:25:05;;;;;;;32.88;21.23;;;;;;;6.68;53.88;101188.28;10316760;28;20399;-82
2022/03/20 21:30:09;;;;;;;29.60;18.83;;;;;;;6.62;54.27;101199.69;10316604;28;20083;-82
2022/03/20 21:35:12;;;;;;;28.48;18.35;;;;;;;6.59;54.30;101196.31;10317529;28;20050;-83
2022/03/20 21:40:16;;;;;;;26.60;18.67;;;;;;;6.29;54.92;101206.50;10317816;28;20492;-82
2022/03/20 21:45:19;;;;;;;31.65;18.38;;;;;;;6.24;55.39;101203.13;10317043;28;20066;-82
2022/03/20 21:50:21;;;;;;;29.23;19.20;;;;;;;6.20;55.50;101205.81;10315042;28;20165;-82
2022/03/20 21:55:25;;;;;;;26.15;18.98;;;;;;;6.29;55.32;101203.91;10310349;28;20054;-82
2022/03/20 22:00:27;;;;;;;31.50;17.50;;;;;;;6.33;55.43;101210.75;10298798;28;20169;-82
2022/03/20 22:05:29;;;;;;;24.38;17.20;;;;;;;6.47;55.46;101209.59;10299015;28;20499;-82
2022/03/20 22:10:32;;;;;;;26.38;17.25;;;;;;;6.62;54.95;101215.28;10316399;28;20500;-82
2022/03/20 22:15:37;;;;;;;25.42;16.83;;;;;;;6.76;54.91;101214.94;10296259;28;20479;-82
2022/03/20 22:20:39;;;;;;;28.20;16.38;;;;;;;6.86;54.71;101229.44;10306079;28;20567;-82
2022/03/20 22:25:43;;;;;;;29.20;20.33;;;;;;;6.80;54.50;101235.66;10314418;28;20082;-82
2022/03/20 22:30:45;;;;;;;28.00;19.65;;;;;;;6.64;55.19;101229.09;10315813;28;20064;-82
2022/03/20 22:41:14;;;;;;;28.10;19.60;;;;;;;6.64;55.18;101226.50;10614139;27;20294;-60
2022/03/20 22:46:17;;;;;;;30.42;19.48;;;;;;;6.70;54.94;101222.91;10629616;27;20599;-61
2022/03/20 22:51:19;;;;;;;29.10;18.95;;;;;;;6.70;54.75;101217.69;10609246;27;20054;-60
2022/03/20 22:56:21;;;;;;;27.00;19.88;;;;;;;6.61;54.63;101228.31;10628918;27;20418;-61
2022/03/20 23:01:24;;;;;;;29.42;21.00;;;;;;;6.29;55.21;101229.03;10629252;27;20053;-60
2022/03/20 23:06:26;;;;;;;33.88;21.85;;;;;;;6.21;55.48;101236.94;10628272;27;20135;-61
2022/03/20 23:11:29;;;;;;;33.10;23.35;;;;;;;6.20;55.42;101240.47;10627807;27;20544;-60
2022/03/20 23:16:31;;;;;;;34.55;22.83;;;;;;;6.15;55.44;101244.00;10627496;27;20051;-60
2022/03/20 23:21:33;;;;;;;35.30;21.90;;;;;;;5.95;55.96;101247.03;10626760;27;20075;-60
2022/03/20 23:26:35;;;;;;;27.27;19.80;;;;;;;5.93;55.95;101247.94;10609746;27;20049;-60
2022/03/20 23:31:38;;;;;;;34.60;21.05;;;;;;;5.87;55.99;101250.66;10627870;27;20139;-60
2022/03/20 23:36:40;;;;;;;30.40;19.98;;;;;;;5.82;56.08;101250.75;10626163;27;20070;-60
2022/03/20 23:47:04;;;;;;;31.98;20.95;;;;;;;5.66;56.50;101259.69;10598784;27;20035;-60
2022/03/20 23:52:07;;;;;;;31.73;22.70;;;;;;;5.63;56.63;101259.78;10580108;27;20083;-60
2022/03/20 23:57:08;;;;;;;26.48;17.73;;;;;;;5.46;57.10;101259.22;10598803;27;20486;-60
